createdAt,value
2017-06-12T00:00:00.197Z,22.20
2017-06-12T00:02:28.617Z,22.00
2017-06-12T00:04:57.268Z,22.10
2017-06-12T00:07:25.691Z,22.10
2017-06-12T00:09:54.136Z,22.10
2017-06-12T00:12:22.574Z,22.00
2017-06-12T00:14:51.753Z,22.10
2017-06-12T00:17:20.207Z,22.00
2017-06-12T00:19:48.651Z,22.00
2017-06-12T00:22:17.082Z,22.10
2017-06-12T00:24:45.532Z,22.10
2017-06-12T00:27:13.982Z,22.10
2017-06-12T00:29:43.165Z,22.10
2017-06-12T00:32:12.344Z,22.00
2017-06-12T00:34:40.856Z,22.00
2017-06-12T00:37:09.273Z,22.00
2017-06-12T00:39:37.693Z,21.90
2017-06-12T00:42:06.132Z,21.90
2017-06-12T00:44:34.548Z,21.90
2017-06-12T00:47:03.065Z,21.90
2017-06-12T00:49:31.483Z,21.80
2017-06-12T00:51:59.923Z,21.80
2017-06-12T00:54:28.349Z,21.80
2017-06-12T00:56:56.811Z,21.80
2017-06-12T00:59:25.223Z,21.80
2017-06-12T01:01:53.628Z,21.80
2017-06-12T01:04:22.108Z,21.80
2017-06-12T01:06:50.603Z,21.80
2017-06-12T01:09:19.019Z,21.70
2017-06-12T01:11:47.449Z,21.70
2017-06-12T01:14:15.860Z,21.70
2017-06-12T01:16:44.277Z,21.70
2017-06-12T01:19:13.504Z,21.70
2017-06-12T01:22:03.931Z,21.70
2017-06-12T01:24:32.379Z,21.60
2017-06-12T01:27:00.838Z,21.60
2017-06-12T01:29:29.332Z,21.60
2017-06-12T01:31:57.790Z,21.50
2017-06-12T01:34:26.987Z,21.50
2017-06-12T01:36:55.405Z,21.50
2017-06-12T01:39:23.855Z,21.50
2017-06-12T01:41:53.027Z,21.50
2017-06-12T01:44:21.453Z,21.50
2017-06-12T01:46:49.524Z,21.40
2017-06-12T01:49:17.940Z,21.40
2017-06-12T01:51:46.365Z,21.50
2017-06-12T01:54:15.567Z,21.50
2017-06-12T01:56:44.003Z,21.50
2017-06-12T01:59:12.429Z,21.40
2017-06-12T02:01:40.877Z,21.30
2017-06-12T02:04:09.289Z,21.20
2017-06-12T02:06:37.717Z,21.20
2017-06-12T02:09:06.352Z,21.20
2017-06-12T02:11:34.783Z,21.10
2017-06-12T02:14:03.200Z,21.00
2017-06-12T02:16:31.653Z,20.90
2017-06-12T02:19:00.053Z,20.90
2017-06-12T02:21:29.227Z,20.90
2017-06-12T02:23:57.684Z,20.80
2017-06-12T02:26:26.084Z,20.80
2017-06-12T02:28:54.497Z,20.80
2017-06-12T02:31:22.947Z,20.70
2017-06-12T02:33:51.365Z,20.60
2017-06-12T02:36:19.771Z,20.60
2017-06-12T02:38:48.229Z,20.50
2017-06-12T02:41:16.725Z,20.40
2017-06-12T02:43:45.155Z,20.40
2017-06-12T02:46:14.356Z,20.30
2017-06-12T02:48:43.545Z,20.20
2017-06-12T02:51:12.734Z,20.20
2017-06-12T02:53:41.175Z,20.20
2017-06-12T02:56:09.585Z,20.20
2017-06-12T02:58:37.700Z,20.10
2017-06-12T03:01:06.152Z,20.10
2017-06-12T03:03:35.330Z,20.00
2017-06-12T03:06:03.747Z,20.00
2017-06-12T03:08:32.209Z,20.00
2017-06-12T03:11:01.391Z,19.80
2017-06-12T03:13:29.811Z,19.80
2017-06-12T03:15:58.273Z,19.90
2017-06-12T03:18:26.691Z,19.80
2017-06-12T03:20:55.124Z,19.80
2017-06-12T03:23:24.340Z,19.60
2017-06-12T03:25:52.771Z,19.60
2017-06-12T03:28:21.174Z,19.60
2017-06-12T03:30:50.385Z,19.50
2017-06-12T03:33:18.867Z,19.50
2017-06-12T03:35:47.270Z,19.50
2017-06-12T03:38:15.717Z,19.40
2017-06-12T03:40:44.896Z,19.40
2017-06-12T03:43:13.412Z,19.40
2017-06-12T03:45:41.859Z,19.30
2017-06-12T03:48:10.708Z,19.20
2017-06-12T03:50:39.123Z,19.20
2017-06-12T03:53:07.583Z,19.20
2017-06-12T03:55:35.988Z,19.20
2017-06-12T03:58:05.180Z,19.10
2017-06-12T04:00:33.620Z,19.10
2017-06-12T04:03:02.044Z,19.10
2017-06-12T04:05:31.227Z,19.00
2017-06-12T04:07:59.664Z,19.00
2017-06-12T04:10:28.075Z,18.90
2017-06-12T04:12:56.496Z,19.00
2017-06-12T04:15:25.722Z,18.90
2017-06-12T04:17:54.146Z,18.80
2017-06-12T04:20:22.588Z,18.90
2017-06-12T04:22:51.017Z,18.90
2017-06-12T04:25:20.200Z,18.90
2017-06-12T04:27:48.617Z,18.90
2017-06-12T04:30:17.045Z,18.90
2017-06-12T04:32:45.460Z,18.90
2017-06-12T04:35:13.895Z,18.90
2017-06-12T04:37:42.343Z,18.90
2017-06-12T04:40:10.757Z,18.80
2017-06-12T04:42:39.277Z,18.80
2017-06-12T04:45:07.739Z,18.80
2017-06-12T04:47:36.835Z,18.70
2017-06-12T04:50:05.242Z,18.70
2017-06-12T04:52:33.670Z,18.70
2017-06-12T04:55:02.079Z,18.70
2017-06-12T04:57:31.267Z,18.90
2017-06-12T05:00:00.583Z,18.90
2017-06-12T05:02:29.021Z,18.90
2017-06-12T05:04:57.433Z,18.80
2017-06-12T05:07:26.625Z,18.70
2017-06-12T05:09:55.807Z,18.80
2017-06-12T05:12:24.226Z,18.70
2017-06-12T05:14:52.676Z,18.80
2017-06-12T05:17:21.063Z,18.80
2017-06-12T05:19:50.253Z,18.90
2017-06-12T05:22:19.479Z,19.30
2017-06-12T05:24:47.888Z,19.30
2017-06-12T05:27:16.301Z,19.20
2017-06-12T05:29:45.560Z,18.90
2017-06-12T05:32:13.976Z,18.90
2017-06-12T05:34:43.156Z,18.90
2017-06-12T05:37:11.592Z,18.80
2017-06-12T05:39:40.002Z,18.90
2017-06-12T05:42:08.409Z,18.90
2017-06-12T05:44:37.606Z,18.70
2017-06-12T05:47:06.027Z,18.60
2017-06-12T05:49:34.416Z,18.60
2017-06-12T05:52:02.847Z,18.60
2017-06-12T05:54:32.028Z,18.60
2017-06-12T05:57:00.562Z,18.60
2017-06-12T05:59:28.999Z,18.60
2017-06-12T06:01:57.411Z,18.60
2017-06-12T06:04:25.824Z,18.60
2017-06-12T06:06:54.283Z,18.60
2017-06-12T06:09:22.672Z,18.60
2017-06-12T06:11:51.091Z,18.60
2017-06-12T06:14:19.533Z,18.60
2017-06-12T06:16:47.953Z,18.70
2017-06-12T06:19:16.360Z,18.70
2017-06-12T06:21:44.789Z,18.70
2017-06-12T06:24:13.200Z,18.70
2017-06-12T06:26:42.380Z,18.80
2017-06-12T06:29:11.588Z,18.70
2017-06-12T06:31:40.764Z,18.60
2017-06-12T06:34:09.187Z,18.60
2017-06-12T06:36:37.617Z,18.60
2017-06-12T06:39:06.029Z,18.70
2017-06-12T06:41:34.468Z,18.70
2017-06-12T06:44:02.896Z,18.70
2017-06-12T06:46:31.320Z,18.80
2017-06-12T06:48:59.744Z,18.80
2017-06-12T06:51:28.191Z,18.80
2017-06-12T06:53:56.429Z,18.90
2017-06-12T06:56:24.841Z,19.00
2017-06-12T06:58:53.265Z,18.90
2017-06-12T07:01:21.736Z,18.80
2017-06-12T07:03:50.904Z,18.80
2017-06-12T07:06:19.347Z,18.80
2017-06-12T07:08:47.777Z,18.90
2017-06-12T07:11:16.767Z,18.80
2017-06-12T07:13:45.963Z,18.80
2017-06-12T07:16:15.141Z,18.90
2017-06-12T07:18:43.540Z,18.80
2017-06-12T07:21:12.924Z,19.00
2017-06-12T07:23:41.349Z,19.10
2017-06-12T07:26:09.762Z,19.10
2017-06-12T07:28:38.196Z,19.20
2017-06-12T07:31:06.625Z,19.20
2017-06-12T07:33:35.041Z,19.20
2017-06-12T07:36:04.256Z,19.10
2017-06-12T07:38:32.656Z,19.20
2017-06-12T07:41:01.078Z,19.20
2017-06-12T07:43:29.521Z,19.10
2017-06-12T07:45:57.951Z,19.10
2017-06-12T07:48:27.129Z,19.10
2017-06-12T07:50:55.571Z,19.10
2017-06-12T07:53:23.973Z,19.20
2017-06-12T07:55:52.381Z,19.30
2017-06-12T07:58:21.636Z,19.20
2017-06-12T08:00:50.056Z,19.20
2017-06-12T08:03:19.252Z,19.30
2017-06-12T08:05:48.259Z,19.30
2017-06-12T08:08:17.452Z,19.40
2017-06-12T08:10:46.293Z,19.50
2017-06-12T08:13:14.726Z,19.50
2017-06-12T08:15:43.149Z,19.60
2017-06-12T08:18:11.572Z,19.70
2017-06-12T08:20:40.789Z,19.90
2017-06-12T08:23:09.230Z,19.90
2017-06-12T08:25:37.635Z,20.00
2017-06-12T08:28:06.843Z,20.10
2017-06-12T08:30:35.271Z,20.10
2017-06-12T08:33:03.676Z,20.20
2017-06-12T08:35:32.122Z,20.20
2017-06-12T08:38:00.530Z,20.10
2017-06-12T08:40:29.720Z,20.20
2017-06-12T08:42:58.152Z,20.20
2017-06-12T08:45:26.596Z,20.30
2017-06-12T08:47:55.770Z,20.50
2017-06-12T08:50:24.290Z,20.50
2017-06-12T08:52:52.721Z,20.60
2017-06-12T08:55:21.140Z,20.70
2017-06-12T08:57:49.624Z,20.80
2017-06-12T09:00:18.035Z,20.80
2017-06-12T09:02:46.507Z,20.80
2017-06-12T09:05:14.915Z,21.10
2017-06-12T09:07:43.330Z,21.50
2017-06-12T09:10:12.547Z,21.60
2017-06-12T09:12:40.988Z,21.60
2017-06-12T09:15:09.405Z,21.80
2017-06-12T09:17:37.828Z,21.90
2017-06-12T09:20:06.275Z,22.00
2017-06-12T09:22:36.501Z,21.90
2017-06-12T09:25:04.907Z,21.90
2017-06-12T09:27:33.344Z,22.10
2017-06-12T09:30:01.755Z,22.30
2017-06-12T09:32:30.203Z,22.30
2017-06-12T09:34:58.648Z,22.30
2017-06-12T09:37:27.052Z,22.50
2017-06-12T09:39:55.484Z,22.80
2017-06-12T09:42:23.966Z,22.70
2017-06-12T09:44:52.369Z,22.70
2017-06-12T09:47:21.542Z,23.20
2017-06-12T09:49:50.021Z,23.20
2017-06-12T09:52:18.491Z,23.40
2017-06-12T09:54:46.900Z,23.60
2017-06-12T09:57:16.558Z,23.90
2017-06-12T09:59:44.982Z,23.90
2017-06-12T10:02:14.175Z,23.60
2017-06-12T10:04:42.675Z,23.60
2017-06-12T10:07:11.857Z,23.60
2017-06-12T10:09:41.057Z,23.60
2017-06-12T10:12:10.255Z,23.90
2017-06-12T10:14:39.426Z,24.30
2017-06-12T10:17:07.844Z,24.30
2017-06-12T10:19:36.562Z,24.40
2017-06-12T10:22:04.977Z,24.50
2017-06-12T10:24:33.361Z,24.40
2017-06-12T10:27:01.881Z,24.00
2017-06-12T10:29:30.289Z,23.90
2017-06-12T10:31:58.736Z,24.00
2017-06-12T10:34:27.317Z,23.70
2017-06-12T10:36:55.744Z,23.70
2017-06-12T10:39:24.146Z,23.90
2017-06-12T10:41:53.369Z,24.10
2017-06-12T10:44:21.782Z,24.10
2017-06-12T10:46:50.245Z,24.10
2017-06-12T10:49:18.916Z,24.20
2017-06-12T10:51:47.351Z,24.10
2017-06-12T10:54:15.813Z,23.80
2017-06-12T10:56:44.557Z,23.50
2017-06-12T10:59:13.069Z,23.50
2017-06-12T11:01:41.485Z,23.40
2017-06-12T11:04:10.097Z,23.30
2017-06-12T11:06:38.508Z,23.00
2017-06-12T11:09:06.937Z,22.90
2017-06-12T11:11:36.485Z,22.80
2017-06-12T11:14:04.897Z,22.80
2017-06-12T11:16:33.305Z,23.00
2017-06-12T11:19:02.441Z,22.90
2017-06-12T11:21:30.663Z,23.10
2017-06-12T11:23:59.849Z,23.60
2017-06-12T11:26:33.905Z,23.60
2017-06-12T11:29:02.143Z,23.70
2017-06-12T11:31:30.361Z,23.70
2017-06-12T11:33:58.792Z,23.60
2017-06-12T11:36:28.000Z,23.30
2017-06-12T11:38:57.192Z,23.20
2017-06-12T11:41:26.257Z,23.00
2017-06-12T11:43:54.699Z,23.00
2017-06-12T11:46:23.192Z,22.90
2017-06-12T11:48:52.453Z,23.00
2017-06-12T11:51:21.644Z,23.20
2017-06-12T11:53:50.837Z,23.40
2017-06-12T11:56:19.312Z,23.40
2017-06-12T11:58:47.774Z,23.20
2017-06-12T12:01:16.200Z,23.20
2017-06-12T12:03:44.786Z,23.10
2017-06-12T12:06:13.215Z,23.20
2017-06-12T12:08:41.627Z,23.10
2017-06-12T12:11:11.111Z,23.30
2017-06-12T12:13:39.544Z,23.30
2017-06-12T12:16:07.996Z,23.10
2017-06-12T12:18:36.454Z,23.10
2017-06-12T12:21:04.901Z,23.10
2017-06-12T12:23:33.995Z,23.10
2017-06-12T12:26:02.647Z,23.20
2017-06-12T12:28:31.024Z,23.30
2017-06-12T12:31:00.886Z,23.50
2017-06-12T12:33:29.504Z,23.50
2017-06-12T12:35:57.997Z,23.60
2017-06-12T12:38:26.416Z,23.70
2017-06-12T12:40:55.049Z,23.70
2017-06-12T12:43:23.459Z,23.70
2017-06-12T12:45:51.871Z,23.60
2017-06-12T12:48:20.320Z,23.50
2017-06-12T12:50:48.744Z,23.40
2017-06-12T12:53:17.934Z,23.40
2017-06-12T12:55:46.754Z,23.40
2017-06-12T12:58:15.165Z,23.60
2017-06-12T13:00:43.593Z,23.90
2017-06-12T13:03:12.837Z,23.80
2017-06-12T13:05:41.264Z,23.80
2017-06-12T13:08:09.769Z,23.80
2017-06-12T13:10:38.556Z,23.80
2017-06-12T13:13:06.985Z,23.70
2017-06-12T13:15:35.396Z,23.70
2017-06-12T13:18:04.792Z,23.40
2017-06-12T13:20:33.964Z,23.20
2017-06-12T13:23:02.387Z,23.20
2017-06-12T13:25:31.089Z,23.10
2017-06-12T13:27:59.549Z,23.00
2017-06-12T13:30:27.964Z,22.90
2017-06-12T13:32:56.448Z,22.80
2017-06-12T13:35:24.856Z,22.80
2017-06-12T13:37:53.391Z,22.80
2017-06-12T13:40:22.290Z,22.70
2017-06-12T13:42:50.689Z,22.60
2017-06-12T13:45:19.113Z,22.60
2017-06-12T13:47:47.704Z,22.70
2017-06-12T13:50:16.132Z,22.80
2017-06-12T13:52:44.548Z,22.80
2017-06-12T13:55:13.753Z,22.70
2017-06-12T13:57:42.168Z,22.70
2017-06-12T14:00:10.580Z,22.70
2017-06-12T14:02:39.367Z,22.70
2017-06-12T14:05:07.824Z,22.80
2017-06-12T14:07:36.286Z,22.90
2017-06-12T14:10:05.016Z,22.90
2017-06-12T14:12:33.572Z,22.90
2017-06-12T14:15:01.990Z,22.80
2017-06-12T14:17:31.803Z,22.80
2017-06-12T14:20:00.997Z,22.70
2017-06-12T14:22:30.165Z,22.70
2017-06-12T14:24:58.803Z,22.70
2017-06-12T14:27:27.215Z,22.70
2017-06-12T14:29:55.628Z,22.70
2017-06-12T14:32:24.468Z,22.80
2017-06-12T14:34:52.884Z,22.90
2017-06-12T14:37:21.312Z,22.80
2017-06-12T14:39:49.893Z,22.80
2017-06-12T14:42:18.297Z,22.90
2017-06-12T14:44:46.750Z,22.90
2017-06-12T14:47:15.428Z,22.90
2017-06-12T14:49:43.844Z,22.90
2017-06-12T14:52:12.262Z,22.80
2017-06-12T14:54:41.700Z,22.70
2017-06-12T14:57:10.181Z,22.70
2017-06-12T14:59:38.630Z,22.60
2017-06-12T15:02:07.993Z,22.60
2017-06-12T15:04:36.408Z,22.60
2017-06-12T15:07:05.588Z,22.80
2017-06-12T15:09:33.919Z,22.80
2017-06-12T15:12:02.348Z,22.90
2017-06-12T15:14:30.775Z,22.90
2017-06-12T15:16:59.443Z,22.80
2017-06-12T15:19:27.879Z,22.80
2017-06-12T15:21:56.304Z,22.80
2017-06-12T15:24:24.741Z,22.90
2017-06-12T15:26:53.228Z,23.00
2017-06-12T15:29:21.644Z,22.90
2017-06-12T15:31:50.070Z,22.80
2017-06-12T15:34:18.500Z,22.70
2017-06-12T15:36:46.927Z,22.60
2017-06-12T15:39:15.409Z,22.50
2017-06-12T15:41:43.840Z,22.50
2017-06-12T15:44:12.256Z,22.50
2017-06-12T15:46:40.884Z,22.60
2017-06-12T15:49:09.300Z,22.80
2017-06-12T15:51:37.703Z,22.90
2017-06-12T15:54:06.342Z,22.80
2017-06-12T15:56:34.777Z,22.70
2017-06-12T15:59:03.211Z,22.70
2017-06-12T16:01:31.836Z,22.50
2017-06-12T16:04:00.257Z,22.40
2017-06-12T16:06:28.679Z,22.30
2017-06-12T16:08:57.118Z,22.10
2017-06-12T16:11:26.077Z,22.00
2017-06-12T16:13:54.581Z,21.90
2017-06-12T16:16:23.468Z,21.90
2017-06-12T16:18:51.885Z,21.90
2017-06-12T16:21:20.328Z,22.00
2017-06-12T16:23:49.038Z,22.00
2017-06-12T16:26:17.500Z,22.00
2017-06-12T16:28:45.973Z,22.00
2017-06-12T16:31:14.569Z,22.00
2017-06-12T16:33:42.981Z,22.00
2017-06-12T16:36:11.409Z,22.00
2017-06-12T16:38:39.838Z,22.00
2017-06-12T16:41:08.254Z,22.00
2017-06-12T16:43:37.439Z,22.00
2017-06-12T16:46:06.252Z,21.90
2017-06-12T16:48:34.695Z,21.90
2017-06-12T16:51:03.113Z,21.80
2017-06-12T16:53:31.697Z,21.80
2017-06-12T16:56:00.167Z,21.70
2017-06-12T16:58:29.348Z,21.70
2017-06-12T17:00:58.588Z,21.60
2017-06-12T17:03:27.003Z,21.60
2017-06-12T17:05:55.421Z,21.50
2017-06-12T17:08:24.833Z,21.50
2017-06-12T17:10:53.254Z,21.40
2017-06-12T17:13:21.708Z,21.50
2017-06-12T17:15:50.369Z,21.50
2017-06-12T17:18:18.792Z,21.50
2017-06-12T17:20:47.209Z,21.50
2017-06-12T17:23:16.715Z,21.30
2017-06-12T17:25:45.918Z,21.20
2017-06-12T17:28:15.258Z,21.20
2017-06-12T17:30:43.873Z,21.20
2017-06-12T17:33:12.288Z,21.20
2017-06-12T17:35:40.769Z,21.20
2017-06-12T17:38:09.359Z,21.20
2017-06-12T17:40:37.794Z,21.10
2017-06-12T17:43:06.236Z,21.10
2017-06-12T17:45:34.679Z,21.10
2017-06-12T17:48:03.889Z,21.10
2017-06-12T17:50:32.323Z,21.10
2017-06-12T17:53:00.950Z,21.10
2017-06-12T17:55:29.385Z,21.10
2017-06-12T17:57:57.802Z,21.00
2017-06-12T18:00:27.216Z,20.90
2017-06-12T18:02:55.659Z,20.90
2017-06-12T18:05:24.089Z,21.00
2017-06-12T18:07:52.758Z,20.90
2017-06-12T18:10:21.180Z,20.80
2017-06-12T18:12:49.610Z,20.80
2017-06-12T18:15:18.081Z,20.90
2017-06-12T18:17:47.324Z,21.00
2017-06-12T18:20:15.737Z,21.00
2017-06-12T18:22:44.552Z,20.90
2017-06-12T18:25:12.982Z,20.90
2017-06-12T18:27:41.439Z,20.90
2017-06-12T18:30:10.105Z,20.90
2017-06-12T18:32:38.508Z,20.80
2017-06-12T18:35:06.928Z,20.80
2017-06-12T18:37:36.561Z,20.80
2017-06-12T18:40:04.994Z,20.80
2017-06-12T18:42:33.415Z,20.80
2017-06-12T18:45:02.607Z,20.70
2017-06-12T18:47:31.798Z,20.60
2017-06-12T18:50:00.983Z,20.60
2017-06-12T18:52:29.746Z,20.50
2017-06-12T18:54:58.157Z,20.50
2017-06-12T18:57:27.352Z,20.50
2017-06-12T18:59:56.664Z,20.50
2017-06-12T19:02:25.101Z,20.50
2017-06-12T19:04:53.511Z,20.50
2017-06-12T19:07:23.213Z,20.40
2017-06-12T19:09:52.633Z,20.30
2017-06-12T19:12:21.825Z,20.20
2017-06-12T19:14:51.262Z,20.20
2017-06-12T19:17:19.700Z,20.20
2017-06-12T19:19:49.148Z,20.20
2017-06-12T19:22:17.704Z,20.20
2017-06-12T19:24:46.150Z,20.20
2017-06-12T19:27:14.594Z,20.10
2017-06-12T19:29:43.049Z,20.10
2017-06-12T19:32:11.510Z,20.10
2017-06-12T19:34:40.707Z,20.10
2017-06-12T19:37:10.016Z,20.00
2017-06-12T19:39:38.469Z,20.00
2017-06-12T19:42:06.924Z,20.00
2017-06-12T19:44:35.558Z,20.10
2017-06-12T19:47:04.004Z,20.10
2017-06-12T19:49:32.453Z,20.10
2017-06-12T19:52:01.301Z,20.20
2017-06-12T19:54:30.489Z,20.10
2017-06-12T19:56:59.697Z,20.10
2017-06-12T19:59:28.176Z,20.00
2017-06-12T20:01:56.412Z,20.00
2017-06-12T20:04:25.583Z,20.00
2017-06-12T20:06:54.408Z,20.00
2017-06-12T20:09:22.829Z,19.90
2017-06-12T20:11:51.259Z,19.80
2017-06-12T20:14:19.753Z,19.70
2017-06-12T20:16:48.183Z,19.70
2017-06-12T20:19:16.648Z,19.60
2017-06-12T20:21:45.336Z,19.70
2017-06-12T20:24:13.803Z,19.60
2017-06-12T20:26:42.222Z,19.60
2017-06-12T20:29:10.834Z,19.50
2017-06-12T20:31:39.291Z,19.40
2017-06-12T20:34:07.710Z,19.40
2017-06-12T20:36:38.208Z,19.30
2017-06-12T20:39:06.695Z,19.40
2017-06-12T20:41:35.132Z,19.40
2017-06-12T20:44:03.715Z,19.30
2017-06-12T20:46:32.138Z,19.40
2017-06-12T20:49:00.549Z,19.50
2017-06-12T20:51:29.295Z,19.40
2017-06-12T20:53:59.434Z,19.40
2017-06-12T20:56:27.854Z,19.30
2017-06-12T20:58:56.316Z,19.30
2017-06-12T21:01:24.740Z,19.30
2017-06-12T21:03:53.170Z,19.20
2017-06-12T21:06:21.784Z,19.30
2017-06-12T21:08:50.209Z,19.20
2017-06-12T21:11:18.645Z,19.20
2017-06-12T21:13:47.596Z,19.30
2017-06-12T21:16:16.789Z,19.10
2017-06-12T21:18:45.972Z,19.10
2017-06-12T21:21:15.409Z,19.10
2017-06-12T21:23:43.839Z,19.10
2017-06-12T21:26:12.265Z,19.10
2017-06-12T21:28:40.723Z,19.20
2017-06-12T21:31:09.921Z,19.20
2017-06-12T21:33:39.087Z,19.20
2017-06-12T21:36:07.727Z,19.10
2017-06-12T21:38:36.152Z,19.20
2017-06-12T21:41:04.612Z,19.20
2017-06-12T21:43:33.257Z,19.30
2017-06-12T21:46:01.679Z,19.20
2017-06-12T21:48:30.146Z,19.10
2017-06-12T21:50:58.972Z,19.10
2017-06-12T21:53:27.464Z,19.10
2017-06-12T21:55:55.873Z,19.10
2017-06-12T21:58:24.366Z,19.10
2017-06-12T22:00:52.784Z,19.10
2017-06-12T22:03:21.210Z,19.10
2017-06-12T22:05:49.894Z,19.00
2017-06-12T22:08:18.335Z,19.00
2017-06-12T22:10:46.756Z,18.90
2017-06-12T22:13:15.200Z,19.00
2017-06-12T22:15:43.692Z,18.90
2017-06-12T22:18:12.883Z,18.90
2017-06-12T22:20:42.130Z,18.90
2017-06-12T22:23:10.537Z,18.90
2017-06-12T22:25:38.989Z,18.80
2017-06-12T22:28:07.460Z,18.80
2017-06-12T22:30:35.896Z,18.80
2017-06-12T22:33:05.076Z,18.80
2017-06-12T22:35:33.533Z,18.80
2017-06-12T22:38:01.943Z,18.90
2017-06-12T22:40:30.371Z,18.90
2017-06-12T22:42:58.849Z,18.80
2017-06-12T22:45:27.275Z,18.80
2017-06-12T22:47:55.709Z,18.80
2017-06-12T22:50:24.163Z,18.70
2017-06-12T22:52:52.567Z,18.80
2017-06-12T22:55:20.975Z,18.80
2017-06-12T22:57:49.451Z,18.70
2017-06-12T23:00:17.905Z,18.70
2017-06-12T23:02:46.316Z,18.70
2017-06-12T23:05:14.804Z,18.70
2017-06-12T23:07:43.244Z,18.70
2017-06-12T23:10:11.644Z,18.60
2017-06-12T23:12:40.084Z,18.60
2017-06-12T23:15:08.549Z,18.70
2017-06-12T23:17:37.729Z,18.60
2017-06-12T23:20:06.159Z,18.60
2017-06-12T23:22:34.412Z,18.70
2017-06-12T23:25:02.676Z,18.60
2017-06-12T23:27:36.562Z,18.60
2017-06-12T23:30:04.996Z,18.50
2017-06-12T23:32:33.080Z,18.50
2017-06-12T23:35:01.571Z,18.50
2017-06-12T23:37:30.030Z,18.40
2017-06-12T23:39:58.449Z,18.30
2017-06-12T23:42:26.953Z,18.20
2017-06-12T23:44:56.121Z,18.20
2017-06-12T23:47:24.568Z,18.20
2017-06-12T23:49:53.050Z,18.20
2017-06-12T23:52:21.455Z,18.20
2017-06-12T23:54:49.885Z,18.20
2017-06-12T23:57:18.363Z,18.20
2017-06-12T23:59:46.793Z,18.10
